Terminal Aerodrome Forecast
Issued by NWS

Home | Current Version | Previous Version | Text Only | Print | Product List | Glossary On
Versions: 1 2 3 4 5 6 7 8 9 10 11
000
FTUS44 KBMX 280000 AAA
TAFTOI
TAF AMD
KTOI 280053Z 2801/2824 14005KT 5SM RA BR VCTS BKN050CB OVC100
     FM280200 12005KT 5SM RA BR SCT010 BKN025
     FM280400 12005KT 4SM RA BR BKN007 OVC015
     FM280600 13006KT 2SM RA BR OVC005
     FM281800 20007KT 5SM SHRA BR OVC007=

USA.gov is the U.S. government's official web portal to all federal, state and local government web resources and services.